Pagrindinis puslapis
METAR-TAF:

METAR-TAF

Oro uostai :

Platinum, Aliaska, Jungtinės Amerikos Valstijos

platuma: 59-01N, ilguma: 161-49W, Aukštis: 3 m

Dabartinis oras

Ataskaita buvo paskelbta 22 minutes, ne 20:56 UTC
Vėjas 12 kt iš Šiaurės
Temperatūra 9°C
Drėgmė 81%
Slėgis 987 hPa
Matomumas: 16.1 km
Su prošvaistėmis ne aukštis 6000 ft
Apsiniaukę ne aukštis 7500 ft

METAR: PAPM 302056Z AUTO 35012KT 10SM BKN060 OVC075 09/06 A2914 RMK AO2 SLP869 60000 T00890061 56015

Laikas: 13:18 (21:18 UTC)


TAF: trūkstamas

Orai ataskaitas ir orų prognozės (METAR, TAF).

turimą stotys yra geltonos ir raudonos taškus žemėlapyje.

Perkelti pele per norėdami pamatyti stoties vardą.

Tada spustelėkite, norėdami matyti oro stebėjimo ir prognozės.

Norėdami pakeisti žemėlapį: spustelėkite ant žalios mygtukų su juodo kryžiaus žemyn,; žalią mygtuką su brūkšneliu, jei norite nutolinti; arba žalių rodyklių gretimoms žemėlapius.


METAR-TAF: